Time;durP1;ratioP1;P1;durP2;ratioP2;P2;SDS_P1;SDS_P2;PMS_P1;PMS_P2;Temp;Humidity;BMP_temperature;BMP_pressure;BME280_temperature;BME280_humidity;BME280_pressure;Samples;Min_cycle;Max_cycle;Signal;HPM_P1;HPM_P2
2022/05/19 00:00:00;;;;;;;6.05;2.33;;;23.00;47.00;;;;;;5044739;28;20405;-46
2022/05/19 00:02:27;;;;;;;5.05;2.50;;;23.00;47.00;;;;;;5042548;28;20056;-47
2022/05/19 00:04:55;;;;;;;3.95;2.70;;;23.00;47.10;;;;;;5043421;28;20052;-46
2022/05/19 00:07:22;;;;;;;5.90;2.67;;;23.00;47.20;;;;;;5043928;28;20056;-47
2022/05/19 00:09:52;;;;;;;7.30;2.95;;;22.90;47.20;;;;;;5044696;28;20053;-48
2022/05/19 00:12:22;;;;;;;4.30;2.50;;;22.90;47.30;;;;;;5042635;28;20061;-47
2022/05/19 00:14:50;;;;;;;3.67;2.40;;;22.90;47.30;;;;;;5043473;28;20091;-46
2022/05/19 00:17:17;;;;;;;3.92;2.38;;;22.80;47.40;;;;;;5042176;28;20432;-46
2022/05/19 00:19:45;;;;;;;4.78;2.92;;;22.80;47.40;;;;;;5045707;28;20049;-48
2022/05/19 00:22:12;;;;;;;5.35;2.45;;;22.80;47.40;;;;;;5043534;28;20689;-49
2022/05/19 00:24:40;;;;;;;4.55;2.30;;;22.70;47.40;;;;;;5042760;28;20056;-49
2022/05/19 00:27:09;;;;;;;6.78;2.90;;;22.70;47.50;;;;;;5043928;28;20059;-49
2022/05/19 00:29:36;;;;;;;2.65;2.30;;;22.70;47.60;;;;;;5043551;28;20053;-47
2022/05/19 00:32:04;;;;;;;7.22;2.30;;;22.70;47.60;;;;;;5043330;28;20048;-48
2022/05/19 00:34:32;;;;;;;3.00;2.50;;;22.60;48.10;;;;;;5043986;28;20057;-47
2022/05/19 00:37:01;;;;;;;6.28;2.38;;;22.60;47.60;;;;;;5043687;28;20485;-46
2022/05/19 00:39:29;;;;;;;4.88;2.30;;;22.60;47.70;;;;;;5043300;28;20049;-49
2022/05/19 00:44:39;;;;;;;3.30;2.13;;;22.60;47.80;;;;;;5043174;28;20444;-46
2022/05/19 00:47:12;;;;;;;4.75;2.60;;;22.50;47.60;;;;;;5042318;28;20051;-47
2022/05/19 00:49:43;;;;;;;5.28;2.45;;;22.50;47.70;;;;;;5042039;28;20053;-48
2022/05/19 00:52:23;;;;;;;3.80;2.40;;;22.50;47.80;;;;;;5041924;28;20049;-50
2022/05/19 00:54:54;;;;;;;5.70;2.40;;;22.50;47.80;;;;;;5042511;28;20045;-51
2022/05/19 00:57:25;;;;;;;4.55;2.03;;;22.50;47.90;;;;;;5042857;28;20053;-46
2022/05/19 00:59:57;;;;;;;4.55;2.40;;;22.40;47.90;;;;;;5041594;28;20056;-46
2022/05/19 01:02:29;;;;;;;5.53;2.40;;;22.40;48.00;;;;;;5041093;28;20068;-48
2022/05/19 01:05:02;;;;;;;6.78;2.70;;;22.40;48.20;;;;;;5044067;28;20065;-46
2022/05/19 01:07:33;;;;;;;3.80;2.40;;;22.40;48.20;;;;;;5042713;28;20057;-47
2022/05/19 01:10:03;;;;;;;3.90;2.60;;;22.30;48.20;;;;;;5043930;28;20046;-48
2022/05/19 01:12:30;;;;;;;3.92;2.40;;;22.30;48.10;;;;;;5043490;28;20614;-47
2022/05/19 01:15:01;;;;;;;4.65;2.53;;;22.30;48.20;;;;;;5044038;28;20057;-49
2022/05/19 01:17:29;;;;;;;5.07;2.28;;;22.30;48.30;;;;;;5041125;28;20049;-46
2022/05/19 01:20:00;;;;;;;7.40;2.65;;;22.20;48.30;;;;;;5043095;28;20053;-47
2022/05/19 01:22:37;;;;;;;4.28;2.45;;;22.30;48.30;;;;;;5042652;28;20059;-50
2022/05/19 01:25:10;;;;;;;4.75;2.50;;;22.20;48.30;;;;;;5042798;28;20045;-48
2022/05/19 01:27:39;;;;;;;3.57;2.40;;;22.20;48.40;;;;;;5042708;28;20049;-49
2022/05/19 01:30:12;;;;;;;5.40;2.47;;;22.20;48.40;;;;;;5042691;28;20498;-47
2022/05/19 01:32:41;;;;;;;2.85;2.58;;;22.20;48.40;;;;;;5039559;28;20416;-47
2022/05/19 01:35:09;;;;;;;5.95;2.47;;;22.10;48.40;;;;;;5042979;28;20045;-46
2022/05/19 01:37:37;;;;;;;3.78;2.35;;;22.20;48.50;;;;;;5041252;28;20057;-46
2022/05/19 01:40:12;;;;;;;4.35;2.65;;;22.10;48.60;;;;;;5042604;28;20052;-46
2022/05/19 01:42:50;;;;;;;9.05;3.10;;;22.10;48.50;;;;;;5042520;28;20056;-48
2022/05/19 01:45:37;;;;;;;5.55;2.72;;;22.10;48.60;;;;;;5042938;28;20056;-46
2022/05/19 01:48:12;;;;;;;3.80;2.58;;;22.00;48.70;;;;;;5040269;28;20060;-46
2022/05/19 01:51:13;;;;;;;5.78;3.00;;;22.00;48.60;;;;;;5041321;28;20076;-46
2022/05/19 01:53:49;;;;;;;5.63;3.10;;;22.00;48.70;;;;;;5040597;28;20060;-47
2022/05/19 01:56:24;;;;;;;3.67;2.45;;;22.00;48.70;;;;;;5042382;28;20436;-48
2022/05/19 01:59:03;;;;;;;7.82;3.00;;;22.00;48.70;;;;;;5041672;28;20057;-47
2022/05/19 02:01:30;;;;;;;6.55;3.08;;;22.00;48.90;;;;;;5041752;28;20057;-47
2022/05/19 02:04:06;;;;;;;3.88;2.50;;;21.90;48.80;;;;;;5040686;28;20061;-45
2022/05/19 02:06:38;;;;;;;3.38;2.42;;;21.90;48.80;;;;;;5042336;28;20060;-49
2022/05/19 02:09:11;;;;;;;7.53;2.95;;;21.90;48.80;;;;;;5041905;28;20053;-45
2022/05/19 02:11:45;;;;;;;5.22;3.33;;;21.90;49.00;;;;;;5041755;28;20052;-47
2022/05/19 02:14:18;;;;;;;6.22;2.83;;;21.90;49.00;;;;;;5042428;28;20527;-48
2022/05/19 02:16:46;;;;;;;5.97;3.25;;;21.80;49.10;;;;;;5040438;28;20052;-45
2022/05/19 02:19:18;;;;;;;3.05;2.35;;;21.80;49.00;;;;;;5042467;28;20048;-47
2022/05/19 02:21:46;;;;;;;3.47;2.40;;;21.80;49.10;;;;;;5041109;28;20064;-46
2022/05/19 02:24:18;;;;;;;5.70;2.60;;;21.80;49.10;;;;;;5041888;28;20049;-52
2022/05/19 02:26:45;;;;;;;2.63;2.25;;;21.70;49.10;;;;;;5039908;28;20056;-47
2022/05/19 02:29:22;;;;;;;6.88;2.95;;;21.80;49.10;;;;;;5040023;28;20845;-46
2022/05/19 02:31:50;;;;;;;5.43;2.97;;;21.70;49.20;;;;;;5040584;28;20048;-50
2022/05/19 02:34:18;;;;;;;3.10;2.53;;;21.70;49.20;;;;;;5040007;28;20053;-49
2022/05/19 02:36:47;;;;;;;8.23;2.70;;;21.70;49.20;;;;;;5041468;28;20057;-47
2022/05/19 02:39:14;;;;;;;5.47;3.03;;;21.70;49.30;;;;;;5041912;28;20527;-48
2022/05/19 02:41:43;;;;;;;5.53;2.95;;;21.60;49.30;;;;;;5040082;28;20057;-48
2022/05/19 02:44:10;;;;;;;5.75;3.03;;;21.60;49.30;;;;;;5041546;28;21005;-46
2022/05/19 02:46:39;;;;;;;3.03;2.42;;;21.60;49.30;;;;;;5041799;28;20485;-48
2022/05/19 02:49:06;;;;;;;4.22;2.80;;;21.60;49.30;;;;;;5041547;28;20057;-47
2022/05/19 02:51:34;;;;;;;5.85;2.60;;;21.60;49.30;;;;;;5043107;28;20049;-49
2022/05/19 02:54:03;;;;;;;10.38;2.63;;;21.60;49.30;;;;;;5040976;28;20500;-47
2022/05/19 02:56:31;;;;;;;11.13;2.83;;;21.60;49.30;;;;;;5041813;28;20056;-48
2022/05/19 02:58:58;;;;;;;7.18;3.22;;;21.60;49.30;;;;;;5040761;28;20493;-49
2022/05/19 03:01:26;;;;;;;3.33;2.42;;;21.50;49.30;;;;;;5039727;28;20049;-51
2022/05/19 03:03:54;;;;;;;3.75;2.45;;;21.50;49.40;;;;;;5038704;28;20119;-50
2022/05/19 03:06:22;;;;;;;3.63;2.60;;;21.50;49.40;;;;;;5040935;28;20063;-50
2022/05/19 03:08:49;;;;;;;5.20;3.28;;;21.50;49.40;;;;;;5040650;28;20049;-51
2022/05/19 03:11:16;;;;;;;4.07;2.63;;;21.50;49.50;;;;;;5040143;28;20045;-51
2022/05/19 03:13:44;;;;;;;4.60;3.17;;;21.50;49.60;;;;;;5041146;28;20060;-47
2022/05/19 03:16:11;;;;;;;3.08;2.40;;;21.50;49.50;;;;;;5040393;28;20056;-46
2022/05/19 03:18:39;;;;;;;3.42;2.47;;;21.50;49.50;;;;;;5043736;28;20048;-48
2022/05/19 03:21:07;;;;;;;7.80;2.90;;;21.50;49.50;;;;;;5042111;28;20053;-47
2022/05/19 03:23:35;;;;;;;4.13;2.63;;;21.40;49.60;;;;;;5042276;28;20049;-48
2022/05/19 03:26:02;;;;;;;7.30;3.28;;;21.40;49.60;;;;;;5044310;28;20064;-47
2022/05/19 03:28:30;;;;;;;4.03;3.13;;;21.40;49.70;;;;;;5045116;28;20064;-48
2022/05/19 03:30:57;;;;;;;4.82;2.97;;;21.40;49.70;;;;;;5044593;28;20053;-47
2022/05/19 03:33:24;;;;;;;9.02;2.97;;;21.30;49.60;;;;;;5040915;28;20056;-48
2022/05/19 03:35:57;;;;;;;7.03;2.80;;;21.40;49.70;;;;;;5043673;28;20405;-47
2022/05/19 03:38:26;;;;;;;4.82;2.83;;;21.40;49.80;;;;;;5044456;28;20053;-49
2022/05/19 03:40:54;;;;;;;5.43;2.90;;;21.40;49.70;;;;;;5043538;28;20401;-48
2022/05/19 03:43:21;;;;;;;5.18;3.13;;;21.40;49.70;;;;;;5043549;28;20421;-49
2022/05/19 03:45:49;;;;;;;4.40;2.90;;;21.30;49.70;;;;;;5043741;28;20480;-51
2022/05/19 03:48:16;;;;;;;6.32;3.13;;;21.30;49.70;;;;;;5042915;28;20053;-48
2022/05/19 03:50:45;;;;;;;6.47;3.05;;;21.30;49.70;;;;;;5043304;28;20053;-47
2022/05/19 03:53:12;;;;;;;6.45;2.60;;;21.30;49.80;;;;;;5043707;28;20057;-47
2022/05/19 03:55:41;;;;;;;6.40;3.05;;;21.30;49.70;;;;;;5044936;28;20049;-45
2022/05/19 03:58:09;;;;;;;11.95;6.20;;;21.30;49.80;;;;;;5043799;28;20508;-48
2022/05/19 04:00:36;;;;;;;7.13;3.63;;;21.30;49.90;;;;;;5043798;28;20056;-48
2022/05/19 04:03:04;;;;;;;5.32;3.67;;;21.30;49.80;;;;;;5041945;28;20534;-47
2022/05/19 04:05:31;;;;;;;4.50;2.90;;;21.30;49.90;;;;;;5044154;28;20531;-48
2022/05/19 04:07:58;;;;;;;4.90;2.97;;;21.30;49.90;;;;;;5044664;28;20052;-48
2022/05/19 04:10:26;;;;;;;4.55;2.80;;;21.30;49.90;;;;;;5043872;28;20049;-49
2022/05/19 04:12:56;;;;;;;4.18;2.55;;;21.30;49.90;;;;;;5041336;28;20436;-46
2022/05/19 04:15:23;;;;;;;6.63;2.40;;;21.30;50.00;;;;;;5042916;28;20064;-49
2022/05/19 04:17:50;;;;;;;5.72;2.85;;;21.30;50.20;;;;;;5043991;28;20053;-49
2022/05/19 04:20:18;;;;;;;3.67;2.35;;;21.30;49.90;;;;;;5043606;28;20053;-48
2022/05/19 04:22:45;;;;;;;4.45;2.50;;;21.30;50.00;;;;;;5043595;28;20053;-46
2022/05/19 04:25:13;;;;;;;3.72;2.80;;;21.30;50.00;;;;;;5043545;28;20044;-49
2022/05/19 04:27:41;;;;;;;7.13;2.88;;;21.30;49.90;;;;;;5043138;28;20049;-46
2022/05/19 04:30:11;;;;;;;5.72;2.95;;;21.30;50.00;;;;;;5041288;28;20053;-52
2022/05/19 04:32:38;;;;;;;4.38;3.47;;;21.30;50.00;;;;;;5041530;28;20061;-51
2022/05/19 04:35:06;;;;;;;4.65;3.20;;;21.30;49.90;;;;;;5043789;28;20059;-46
2022/05/19 04:37:34;;;;;;;5.30;2.53;;;21.40;49.90;;;;;;5043474;28;20076;-47
2022/05/19 04:40:02;;;;;;;5.32;3.00;;;21.40;49.90;;;;;;5043280;28;20060;-48
2022/05/19 04:42:29;;;;;;;6.15;3.00;;;21.40;49.90;;;;;;5043117;28;20056;-49
2022/05/19 04:44:58;;;;;;;7.57;2.80;;;21.40;49.90;;;;;;5041996;28;20049;-47
2022/05/19 04:47:27;;;;;;;4.60;2.75;;;21.40;49.80;;;;;;5042785;28;20136;-50
2022/05/19 04:49:55;;;;;;;4.60;2.55;;;21.40;49.90;;;;;;5042148;28;20053;-46
2022/05/19 04:52:22;;;;;;;4.55;2.60;;;21.50;49.90;;;;;;5042089;28;20504;-50
2022/05/19 04:54:50;;;;;;;4.88;2.53;;;21.50;49.80;;;;;;5041780;28;20057;-49
2022/05/19 04:57:18;;;;;;;3.67;2.45;;;21.50;49.80;;;;;;5042757;28;20060;-47
2022/05/19 04:59:46;;;;;;;6.70;2.63;;;21.50;49.80;;;;;;5042188;28;20068;-46
2022/05/19 05:02:13;;;;;;;4.72;2.70;;;21.60;50.30;;;;;;5041892;28;20061;-47
2022/05/19 05:04:42;;;;;;;3.30;2.28;;;21.50;49.70;;;;;;5042994;28;20057;-46
2022/05/19 05:07:11;;;;;;;6.57;3.10;;;21.60;49.80;;;;;;5042865;28;20378;-47
2022/05/19 05:09:38;;;;;;;11.48;5.70;;;21.60;49.70;;;;;;5042031;28;20052;-51
2022/05/19 05:12:07;;;;;;;7.75;3.33;;;21.60;49.60;;;;;;5042398;28;20053;-48
2022/05/19 05:14:34;;;;;;;3.83;2.75;;;21.60;49.60;;;;;;5042137;28;20774;-47
2022/05/19 05:17:02;;;;;;;6.75;2.88;;;21.60;49.50;;;;;;5040702;28;20064;-49
2022/05/19 05:19:29;;;;;;;3.85;2.67;;;21.60;49.60;;;;;;5043666;28;20084;-48
2022/05/19 05:22:00;;;;;;;6.05;2.90;;;21.60;49.60;;;;;;5042523;28;20496;-46
2022/05/19 05:24:28;;;;;;;4.85;2.47;;;21.60;49.60;;;;;;5042265;28;20053;-48
2022/05/19 05:26:56;;;;;;;4.60;2.90;;;21.60;49.50;;;;;;5041271;28;20052;-47
2022/05/19 05:29:25;;;;;;;4.78;2.65;;;21.60;49.70;;;;;;5039955;28;20124;-47
2022/05/19 05:31:53;;;;;;;5.85;2.70;;;21.70;49.70;;;;;;5040864;28;20124;-48
2022/05/19 05:34:20;;;;;;;9.00;2.58;;;21.70;49.60;;;;;;5041325;28;20061;-48
2022/05/19 05:36:48;;;;;;;4.32;2.45;;;21.70;49.70;;;;;;5041972;28;20056;-50
2022/05/19 05:39:17;;;;;;;4.55;2.92;;;21.70;49.70;;;;;;5040862;28;20064;-47
2022/05/19 05:41:44;;;;;;;5.70;3.05;;;21.70;49.70;;;;;;5040444;28;20080;-47
2022/05/19 05:44:12;;;;;;;5.22;2.10;;;21.70;49.60;;;;;;5041648;28;20049;-49
2022/05/19 05:46:40;;;;;;;4.43;2.53;;;21.80;49.80;;;;;;5041468;28;20053;-49
2022/05/19 05:49:07;;;;;;;7.20;2.78;;;21.80;49.70;;;;;;5040727;28;20048;-46
2022/05/19 05:51:34;;;;;;;6.05;2.50;;;21.80;49.70;;;;;;5040785;28;20045;-47
2022/05/19 05:54:02;;;;;;;4.32;2.35;;;21.90;49.90;;;;;;5038368;28;20044;-46
2022/05/19 05:56:31;;;;;;;4.43;2.72;;;21.90;49.90;;;;;;5041780;28;20489;-46
2022/05/19 05:58:58;;;;;;;5.72;2.70;;;21.90;49.80;;;;;;5041723;28;20489;-48
2022/05/19 06:01:26;;;;;;;6.05;2.60;;;22.00;49.90;;;;;;5039691;28;20053;-48
2022/05/19 06:03:53;;;;;;;5.97;2.50;;;22.00;50.10;;;;;;5041643;28;20067;-46
2022/05/19 06:06:20;;;;;;;4.78;2.50;;;22.10;50.00;;;;;;5041629;28;20045;-52
2022/05/19 06:08:48;;;;;;;3.80;2.30;;;22.20;49.90;;;;;;5042016;28;20049;-51
2022/05/19 06:11:15;;;;;;;6.40;2.45;;;22.20;49.90;;;;;;5042273;28;20523;-46
2022/05/19 06:13:44;;;;;;;3.55;2.00;;;22.30;49.80;;;;;;5041841;28;20060;-49
2022/05/19 06:16:12;;;;;;;9.80;2.95;;;22.30;49.70;;;;;;5041774;28;20052;-47
2022/05/19 06:18:40;;;;;;;4.45;2.40;;;22.40;49.60;;;;;;5039706;28;20057;-50
2022/05/19 06:21:07;;;;;;;7.35;2.53;;;22.40;49.60;;;;;;5039913;28;21330;-46
2022/05/19 06:23:35;;;;;;;5.15;2.45;;;22.50;49.50;;;;;;5041548;28;20523;-46
2022/05/19 06:26:04;;;;;;;5.93;2.75;;;22.50;49.40;;;;;;5041810;28;20053;-46
2022/05/19 06:28:31;;;;;;;5.88;2.65;;;22.60;49.30;;;;;;5042112;28;20416;-48
2022/05/19 06:31:01;;;;;;;3.65;2.33;;;22.70;49.10;;;;;;5041482;28;20057;-47
2022/05/19 06:33:28;;;;;;;4.70;2.15;;;22.70;49.20;;;;;;5038652;28;20045;-45
2022/05/19 06:35:56;;;;;;;4.38;2.10;;;22.70;49.10;;;;;;5040078;28;20053;-45
2022/05/19 06:38:23;;;;;;;2.90;2.30;;;22.80;49.10;;;;;;5041233;28;20057;-45
2022/05/19 06:40:51;;;;;;;3.67;2.20;;;22.90;49.20;;;;;;5040899;28;20470;-47
2022/05/19 06:43:19;;;;;;;3.42;1.95;;;23.00;48.50;;;;;;5039860;28;20059;-45
2022/05/19 06:45:46;;;;;;;8.75;2.47;;;23.10;48.70;;;;;;5044969;28;20067;-45
2022/05/19 06:48:15;;;;;;;4.28;2.15;;;23.10;48.90;;;;;;5040705;28;20064;-46
2022/05/19 06:50:45;;;;;;;3.00;2.10;;;23.20;48.20;;;;;;5040009;28;20057;-45
2022/05/19 06:53:13;;;;;;;4.15;2.10;;;23.30;48.00;;;;;;5045118;28;20119;-45
2022/05/19 06:55:41;;;;;;;3.15;2.00;;;23.40;47.90;;;;;;5044395;28;20056;-46
2022/05/19 06:58:08;;;;;;;3.30;2.05;;;23.50;47.60;;;;;;5045289;28;20508;-48
2022/05/19 07:00:36;;;;;;;8.05;2.25;;;23.60;47.60;;;;;;5045420;28;20053;-45
2022/05/19 07:03:03;;;;;;;5.13;2.45;;;23.70;47.60;;;;;;5042594;28;20075;-48
2022/05/19 07:05:37;;;;;;;7.22;2.28;;;23.80;47.40;;;;;;5045155;28;20057;-50
2022/05/19 07:08:06;;;;;;;7.68;2.70;;;23.80;47.40;;;;;;5045949;28;20072;-45
2022/05/19 07:10:34;;;;;;;10.15;2.17;;;24.00;47.20;;;;;;5044873;28;20056;-45
2022/05/19 07:13:02;;;;;;;2.90;1.67;;;24.00;47.00;;;;;;5043197;28;20048;-45
2022/05/19 07:15:29;;;;;;;10.43;2.35;;;24.10;46.90;;;;;;5044905;28;20057;-45
2022/05/19 07:17:57;;;;;;;9.20;2.17;;;24.20;46.30;;;;;;5041895;28;20400;-45
2022/05/19 07:23:15;;;;;;;8.63;2.47;;;24.30;46.30;;;;;;5047876;28;20056;-47
2022/05/19 07:25:44;;;;;;;12.05;3.10;;;24.40;46.10;;;;;;5033202;28;20059;-45
2022/05/19 07:28:12;;;;;;;7.18;2.50;;;24.50;45.60;;;;;;5044126;28;20052;-45
2022/05/19 07:30:39;;;;;;;4.07;2.20;;;24.50;46.10;;;;;;5043180;28;20534;-46
2022/05/19 07:33:07;;;;;;;4.03;2.00;;;24.60;45.80;;;;;;5042073;28;20064;-45
2022/05/19 07:35:35;;;;;;;5.90;1.90;;;24.70;45.80;;;;;;5042559;28;20057;-45
2022/05/19 07:38:05;;;;;;;4.88;2.10;;;24.80;46.10;;;;;;5043597;28;20048;-45
2022/05/19 07:40:34;;;;;;;4.22;2.08;;;24.80;46.00;;;;;;5045600;28;20045;-51
2022/05/19 07:45:43;;;;;;;3.80;1.83;;;25.00;46.00;;;;;;5039863;28;20071;-46
2022/05/19 07:48:10;;;;;;;2.42;1.70;;;25.00;46.10;;;;;;5040832;28;20064;-46
2022/05/19 07:50:38;;;;;;;4.03;2.10;;;25.10;46.10;;;;;;5043448;28;20069;-45
2022/05/19 07:53:05;;;;;;;3.05;1.70;;;25.10;45.90;;;;;;5041585;28;20410;-45
2022/05/19 07:55:34;;;;;;;2.65;1.80;;;25.10;46.00;;;;;;5043893;28;20056;-47
2022/05/19 07:58:01;;;;;;;4.40;2.20;;;25.20;46.20;;;;;;5042631;28;20055;-47
2022/05/19 08:00:29;;;;;;;4.22;1.90;;;25.20;46.30;;;;;;5043034;28;20053;-46
2022/05/19 08:02:56;;;;;;;3.33;2.08;;;25.20;45.80;;;;;;5036408;28;20041;-46
2022/05/19 08:05:24;;;;;;;3.25;1.98;;;25.30;45.80;;;;;;5045444;28;20063;-45
2022/05/19 08:07:51;;;;;;;2.95;2.00;;;25.30;46.20;;;;;;5043451;28;20063;-46
2022/05/19 08:10:23;;;;;;;3.25;2.03;;;25.30;46.30;;;;;;5042794;28;20053;-45
2022/05/19 08:15:39;;;;;;;3.50;1.85;;;25.40;46.10;;;;;;5040021;28;20586;-45
2022/05/19 08:18:10;;;;;;;5.35;2.25;;;25.40;45.80;;;;;;5040453;28;20417;-47
2022/05/19 08:20:40;;;;;;;3.75;2.10;;;25.40;46.10;;;;;;5043882;28;20045;-45
2022/05/19 08:23:08;;;;;;;4.90;2.00;;;25.40;45.90;;;;;;5043838;28;20409;-45
2022/05/19 08:25:36;;;;;;;7.13;2.20;;;25.40;45.70;;;;;;5043506;28;20052;-45
2022/05/19 08:28:05;;;;;;;3.20;2.20;;;25.40;45.80;;;;;;5042388;28;20056;-46
2022/05/19 08:30:34;;;;;;;7.32;2.63;;;25.40;45.30;;;;;;5042279;28;20049;-45
2022/05/19 08:33:05;;;;;;;4.03;2.40;;;25.40;45.80;;;;;;5041786;28;20053;-48
2022/05/19 08:35:32;;;;;;;4.03;1.83;;;25.50;45.80;;;;;;5043216;28;20377;-49
2022/05/19 08:37:59;;;;;;;5.70;2.25;;;25.50;45.80;;;;;;5044572;28;20052;-46
2022/05/19 08:40:27;;;;;;;3.60;2.03;;;25.50;45.60;;;;;;5043257;28;20412;-45
2022/05/19 08:42:59;;;;;;;4.63;2.10;;;25.50;45.40;;;;;;5042393;28;20049;-47
2022/05/19 08:45:31;;;;;;;4.35;1.98;;;25.50;45.70;;;;;;5043046;28;20053;-45
2022/05/19 08:48:04;;;;;;;4.22;2.60;;;25.60;45.40;;;;;;5043559;28;20049;-48
2022/05/19 08:50:38;;;;;;;9.55;4.00;;;25.60;45.30;;;;;;5041763;28;20068;-47
2022/05/19 08:53:06;;;;;;;;;;;25.70;45.50;;;;;;5041550;28;20045;-45
2022/05/19 08:55:34;;;;;;;6.35;2.08;;;25.80;45.60;;;;;;5042802;28;19920;-46
2022/05/19 08:58:13;;;;;;;4.80;2.35;;;25.80;45.50;;;;;;5040780;28;20495;-44
2022/05/19 09:00:49;;;;;;;3.83;1.95;;;25.90;45.50;;;;;;5041262;28;20421;-45
2022/05/19 09:03:23;;;;;;;3.13;2.00;;;26.00;45.40;;;;;;5043357;28;20041;-45
2022/05/19 09:06:06;;;;;;;4.20;2.17;;;26.00;45.00;;;;;;5042283;28;20052;-44
2022/05/19 09:08:47;;;;;;;2.67;1.77;;;26.10;45.30;;;;;;5041193;28;20079;-46
2022/05/19 09:11:18;;;;;;;3.33;2.20;;;26.20;45.30;;;;;;5041436;28;20053;-45
2022/05/19 09:13:53;;;;;;;4.28;2.28;;;26.30;45.10;;;;;;5042005;28;20049;-47
2022/05/19 09:16:25;;;;;;;3.67;2.30;;;26.30;45.20;;;;;;5042120;28;20053;-47
2022/05/19 09:18:59;;;;;;;5.22;2.10;;;26.40;45.00;;;;;;5042597;28;20059;-48
2022/05/19 09:21:26;;;;;;;24.58;12.85;;;26.50;45.00;;;;;;5042871;28;20053;-45
2022/05/19 09:23:56;;;;;;;9.07;4.45;;;26.50;45.10;;;;;;5042316;28;20063;-44
2022/05/19 09:26:41;;;;;;;5.53;2.50;;;26.60;44.90;;;;;;5042968;28;20064;-44
2022/05/19 09:29:11;;;;;;;5.30;2.30;;;26.70;44.50;;;;;;5040616;28;20045;-45
2022/05/19 09:31:43;;;;;;;8.30;3.20;;;26.70;44.60;;;;;;5041604;28;20059;-49
2022/05/19 09:34:11;;;;;;;3.15;2.20;;;26.80;44.50;;;;;;5040854;28;20052;-44
2022/05/19 09:36:42;;;;;;;4.25;2.40;;;26.80;44.20;;;;;;5043279;28;20048;-48
2022/05/19 09:39:15;;;;;;;3.08;1.90;;;26.90;44.00;;;;;;5042626;28;20064;-45
2022/05/19 09:41:46;;;;;;;5.38;2.20;;;26.90;43.80;;;;;;5041558;28;20052;-44
2022/05/19 09:44:15;;;;;;;5.78;2.72;;;26.90;43.90;;;;;;5041085;28;20045;-47
2022/05/19 09:46:47;;;;;;;2.78;2.20;;;26.90;44.50;;;;;;5040429;28;20053;-50
2022/05/19 09:49:27;;;;;;;4.28;2.17;;;27.00;44.00;;;;;;5039541;28;20056;-47
2022/05/19 09:52:01;;;;;;;5.38;2.47;;;27.00;43.30;;;;;;5040565;28;20045;-46
2022/05/19 09:54:31;;;;;;;4.93;2.70;;;27.00;43.50;;;;;;5042927;28;20685;-45
2022/05/19 09:57:05;;;;;;;6.13;2.88;;;27.00;43.20;;;;;;5039678;28;20056;-45
2022/05/19 09:59:38;;;;;;;5.22;2.22;;;27.00;43.20;;;;;;5042001;28;20060;-47
2022/05/19 10:02:17;;;;;;;5.90;2.28;;;27.00;43.30;;;;;;5039339;28;20056;-45
2022/05/19 10:04:50;;;;;;;5.82;2.60;;;27.00;43.10;;;;;;5041381;28;20060;-45
2022/05/19 10:07:23;;;;;;;6.33;2.50;;;27.00;43.10;;;;;;5042681;28;20053;-45
2022/05/19 10:09:51;;;;;;;7.55;2.08;;;26.90;43.00;;;;;;5041582;28;20052;-45
2022/05/19 10:12:24;;;;;;;10.25;2.42;;;27.00;43.40;;;;;;5040848;28;20061;-46
2022/05/19 10:14:59;;;;;;;4.53;2.33;;;27.00;43.60;;;;;;5041146;28;20064;-49
2022/05/19 10:17:40;;;;;;;4.50;2.40;;;27.00;43.70;;;;;;5041873;28;20057;-47
2022/05/19 10:20:15;;;;;;;3.42;2.28;;;27.10;43.80;;;;;;5041343;28;20049;-47
2022/05/19 10:23:01;;;;;;;2.88;2.08;;;27.10;43.80;;;;;;5041031;28;20053;-46
2022/05/19 10:25:57;;;;;;;3.42;1.90;;;27.10;43.80;;;;;;5040886;28;20056;-46
2022/05/19 10:31:49;;;;;;;4.32;2.30;;;27.30;43.60;;;;;;5045910;28;20923;-46
2022/05/19 10:34:40;;;;;;;5.43;2.15;;;27.40;43.70;;;;;;5041147;28;20044;-46
2022/05/19 10:37:14;;;;;;;3.72;2.22;;;27.50;43.60;;;;;;5043069;28;20044;-48
2022/05/19 10:40:03;;;;;;;2.00;1.67;;;27.50;43.80;;;;;;5040292;28;20524;-47
2022/05/19 10:42:45;;;;;;;4.00;2.13;;;27.60;43.50;;;;;;5040567;28;20064;-45
2022/05/19 10:45:24;;;;;;;2.92;2.05;;;27.70;43.40;;;;;;5041223;28;20053;-47
2022/05/19 10:48:31;;;;;;;4.30;2.22;;;27.80;43.60;;;;;;5041121;28;20428;-45
2022/05/19 10:51:05;;;;;;;4.68;3.03;;;27.90;43.50;;;;;;5040527;28;20057;-49
2022/05/19 10:53:55;;;;;;;3.10;1.77;;;27.90;43.50;;;;;;5039809;28;20057;-45
2022/05/19 10:56:39;;;;;;;2.88;2.00;;;28.00;43.30;;;;;;5041000;28;20056;-47
2022/05/19 10:59:23;;;;;;;3.85;2.30;;;28.10;44.00;;;;;;5039695;28;20049;-47
2022/05/19 11:02:01;;;;;;;4.43;2.55;;;28.20;43.50;;;;;;5040461;28;20053;-46
2022/05/19 11:04:58;;;;;;;4.60;2.13;;;28.20;43.40;;;;;;5040156;28;20048;-46
2022/05/19 11:07:43;;;;;;;2.92;2.05;;;28.30;43.10;;;;;;5040616;28;20057;-46
2022/05/19 11:10:25;;;;;;;4.13;2.25;;;28.40;43.40;;;;;;5040481;28;20052;-49
2022/05/19 11:13:01;;;;;;;3.17;2.22;;;28.40;43.20;;;;;;5038465;28;20068;-48
2022/05/19 11:15:38;;;;;;;5.43;2.20;;;28.40;42.80;;;;;;5042545;28;20049;-46
2022/05/19 11:18:12;;;;;;;4.68;2.25;;;28.50;43.10;;;;;;5040845;28;20049;-48
2022/05/19 11:21:00;;;;;;;3.33;2.10;;;28.50;42.80;;;;;;5040971;28;20520;-45
2022/05/19 11:23:41;;;;;;;2.35;2.10;;;28.50;43.50;;;;;;5041572;28;20056;-45
2022/05/19 11:26:26;;;;;;;2.28;2.03;;;28.60;43.30;;;;;;5041343;28;20057;-46
2022/05/19 11:29:02;;;;;;;5.78;2.30;;;28.70;43.40;;;;;;5040982;28;20053;-45
2022/05/19 11:31:38;;;;;;;3.22;2.10;;;28.70;43.50;;;;;;5041235;28;20073;-46
2022/05/19 11:34:15;;;;;;;6.22;2.50;;;28.80;43.20;;;;;;5040728;28;20049;-46
2022/05/19 11:36:47;;;;;;;2.75;2.08;;;28.90;42.50;;;;;;5041186;28;20053;-47
2022/05/19 11:39:23;;;;;;;4.97;2.30;;;28.90;42.40;;;;;;5045165;28;20060;-46
2022/05/19 11:41:53;;;;;;;5.68;2.47;;;29.00;41.80;;;;;;5044663;28;20056;-48
2022/05/19 11:44:24;;;;;;;4.72;2.17;;;29.00;42.00;;;;;;5045712;28;20048;-50
2022/05/19 11:46:59;;;;;;;5.00;2.80;;;29.10;42.10;;;;;;5045487;28;20057;-47
2022/05/19 11:55:21;;;;;;;7.85;2.28;;;29.20;41.90;;;;;;5015597;28;20056;-46
2022/05/19 11:57:55;;;;;;;9.25;2.38;;;29.30;41.50;;;;;;5006591;28;20489;-47
2022/05/19 12:00:26;;;;;;;5.22;2.40;;;29.30;41.40;;;;;;5005360;28;20061;-48
2022/05/19 12:03:02;;;;;;;3.60;2.20;;;29.30;41.50;;;;;;5004234;28;20057;-48
2022/05/19 12:05:35;;;;;;;6.43;2.28;;;29.30;41.30;;;;;;5003658;28;20045;-48
2022/05/19 12:08:15;;;;;;;6.30;2.63;;;29.40;41.30;;;;;;5005818;28;20057;-47
2022/05/19 12:10:49;;;;;;;7.22;2.22;;;29.40;40.90;;;;;;5005777;28;20061;-51
2022/05/19 12:13:24;;;;;;;4.75;2.50;;;29.30;40.70;;;;;;5003482;28;20410;-46
2022/05/19 12:15:55;;;;;;;3.40;2.00;;;29.30;40.70;;;;;;5004920;28;20065;-46
2022/05/19 12:19:00;;;;;;;4.00;2.28;;;29.30;41.20;;;;;;5003731;28;20050;-45
2022/05/19 12:21:51;;;;;;;3.97;2.35;;;29.30;41.20;;;;;;5003679;28;20065;-47
2022/05/19 12:24:21;;;;;;;7.15;2.58;;;29.40;41.00;;;;;;5004400;28;20046;-46
2022/05/19 12:26:58;;;;;;;3.25;2.30;;;29.40;41.20;;;;;;5005109;28;20069;-45
2022/05/19 12:29:35;;;;;;;3.28;2.38;;;29.50;41.00;;;;;;5003641;28;20125;-47
2022/05/19 12:32:17;;;;;;;3.25;2.08;;;29.50;41.30;;;;;;5004562;28;20049;-46
2022/05/19 12:34:49;;;;;;;5.80;2.45;;;29.60;41.60;;;;;;5003890;28;20053;-45
2022/05/19 12:37:43;;;;;;;4.30;2.20;;;29.70;42.00;;;;;;5003853;28;20054;-47
2022/05/19 12:40:22;;;;;;;4.67;2.33;;;29.70;41.20;;;;;;5003124;28;20076;-45
2022/05/19 12:43:08;;;;;;;4.32;2.30;;;29.80;41.20;;;;;;5004751;28;20057;-46
2022/05/19 12:45:42;;;;;;;4.03;2.33;;;29.80;41.00;;;;;;5004142;28;20049;-46
2022/05/19 12:48:25;;;;;;;2.83;2.40;;;29.80;40.50;;;;;;5001481;28;20053;-48
2022/05/19 12:51:11;;;;;;;5.00;2.20;;;29.80;40.80;;;;;;5003971;28;20609;-46
2022/05/19 12:53:41;;;;;;;11.35;3.00;;;29.80;41.20;;;;;;5004348;28;20050;-48
2022/05/19 12:56:10;;;;;;;8.73;3.00;;;29.80;40.90;;;;;;5005412;28;20409;-47
2022/05/19 12:59:00;;;;;;;8.00;2.20;;;29.80;40.50;;;;;;5003948;28;20052;-46
2022/05/19 13:01:30;;;;;;;5.22;2.65;;;29.80;40.70;;;;;;5000373;28;20072;-49
2022/05/19 13:04:13;;;;;;;4.25;2.53;;;29.80;40.80;;;;;;4999119;28;20413;-48
2022/05/19 13:06:45;;;;;;;4.55;2.33;;;29.80;41.10;;;;;;5002519;28;20057;-49
2022/05/19 13:09:18;;;;;;;6.63;2.42;;;29.80;41.40;;;;;;5002834;28;20058;-47
2022/05/19 13:11:53;;;;;;;11.68;2.45;;;29.80;41.20;;;;;;5002991;28;20394;-46
2022/05/19 13:14:29;;;;;;;5.78;2.70;;;29.80;41.40;;;;;;5002085;28;20053;-45
2022/05/19 13:16:59;;;;;;;5.82;2.95;;;29.90;41.60;;;;;;5002005;28;20056;-47
2022/05/19 13:19:28;;;;;;;7.78;2.83;;;29.90;42.00;;;;;;5001200;28;20050;-45
2022/05/19 13:22:02;;;;;;;5.60;2.90;;;29.90;41.20;;;;;;5001466;28;20053;-48
2022/05/19 13:24:34;;;;;;;10.27;2.97;;;29.90;41.20;;;;;;4999140;28;20061;-49
2022/05/19 13:32:39;;;;;;;4.18;2.22;;;30.00;41.30;;;;;;4999588;28;21518;-46